createdAt,value
2022-12-31T00:00:22.849Z,11.88
2022-12-31T00:02:56.139Z,12.55
2022-12-31T00:05:23.376Z,13.25
2022-12-31T00:07:56.637Z,13.07
2022-12-31T00:10:26.495Z,14.10
2022-12-31T00:12:57.995Z,11.88
2022-12-31T00:15:24.930Z,14.40
2022-12-31T00:17:57.467Z,13.00
2022-12-31T00:20:30.876Z,13.10
2022-12-31T00:23:02.712Z,12.40
2022-12-31T00:25:29.556Z,12.13
2022-12-31T00:28:05.506Z,11.50
2022-12-31T00:30:32.674Z,12.10
2022-12-31T00:33:03.050Z,15.27
2022-12-31T00:35:43.016Z,11.70
2022-12-31T00:38:10.033Z,12.65
2022-12-31T00:40:39.422Z,11.25
2022-12-31T00:43:16.599Z,11.68
2022-12-31T00:45:46.683Z,12.20
2022-12-31T00:48:13.554Z,9.82
2022-12-31T00:50:46.663Z,9.40
2022-12-31T00:55:46.877Z,12.25
2022-12-31T00:58:17.206Z,11.05
2022-12-31T01:00:47.256Z,10.48
2022-12-31T01:03:17.473Z,10.45
2022-12-31T01:05:53.461Z,11.00
2022-12-31T01:08:25.449Z,11.77
2022-12-31T01:10:58.305Z,11.40
2022-12-31T01:13:25.097Z,9.93
2022-12-31T01:15:54.822Z,10.05
2022-12-31T01:18:28.292Z,12.68
2022-12-31T01:21:02.220Z,10.07
2022-12-31T01:23:32.872Z,11.02
2022-12-31T01:26:09.005Z,10.38
2022-12-31T01:28:37.352Z,11.02
2022-12-31T01:31:19.777Z,10.88
2022-12-31T01:33:53.064Z,10.38
2022-12-31T01:36:26.597Z,10.20
2022-12-31T01:39:00.145Z,10.65
2022-12-31T01:41:37.703Z,11.60
2022-12-31T01:44:13.586Z,10.27
2022-12-31T01:47:02.830Z,10.27
2022-12-31T01:49:44.944Z,8.23
2022-12-31T01:52:20.859Z,11.90
2022-12-31T01:54:54.411Z,12.02
2022-12-31T01:57:26.427Z,10.07
2022-12-31T01:59:59.195Z,10.50
2022-12-31T02:02:28.836Z,9.60
2022-12-31T02:05:02.988Z,9.65
2022-12-31T02:07:32.929Z,8.88
2022-12-31T02:10:02.754Z,10.63
2022-12-31T02:12:29.770Z,9.25
2022-12-31T02:15:00.166Z,9.77
2022-12-31T02:17:43.291Z,10.60
2022-12-31T02:20:39.786Z,9.32
2022-12-31T02:23:34.936Z,9.43
2022-12-31T02:26:19.176Z,10.32
2022-12-31T02:29:27.827Z,9.02
2022-12-31T02:32:07.933Z,10.05
2022-12-31T02:34:42.096Z,9.57
2022-12-31T02:37:23.772Z,8.43
2022-12-31T02:39:52.153Z,8.95
2022-12-31T02:42:22.261Z,8.90
2022-12-31T02:44:51.946Z,8.48
2022-12-31T02:48:09.467Z,7.62
2022-12-31T02:50:48.475Z,8.52
2022-12-31T02:53:30.614Z,9.25
2022-12-31T02:56:14.421Z,9.45
2022-12-31T02:59:03.480Z,10.55
2022-12-31T03:01:44.320Z,11.40
2022-12-31T03:04:13.733Z,8.68
2022-12-31T03:06:47.617Z,7.65
2022-12-31T03:09:23.784Z,8.57
2022-12-31T03:11:50.892Z,8.57
2022-12-31T03:14:21.551Z,8.48
2022-12-31T03:16:51.449Z,7.87
2022-12-31T03:19:20.902Z,7.37
2022-12-31T03:21:50.323Z,9.60
2022-12-31T03:24:28.469Z,11.30
2022-12-31T03:26:58.073Z,6.87
2022-12-31T03:29:25.834Z,7.40
2022-12-31T03:31:53.060Z,7.40
2022-12-31T03:34:23.326Z,9.20
2022-12-31T03:36:56.379Z,7.95
2022-12-31T03:41:52.939Z,8.25
2022-12-31T03:44:25.401Z,7.75
2022-12-31T03:46:59.600Z,7.65
2022-12-31T03:49:26.552Z,8.95
2022-12-31T03:51:56.879Z,8.27
2022-12-31T03:54:26.818Z,8.15
2022-12-31T03:56:59.904Z,6.97
2022-12-31T03:59:31.171Z,6.70
2022-12-31T04:01:58.287Z,7.57
2022-12-31T04:04:30.620Z,8.18
2022-12-31T04:07:01.162Z,7.50
2022-12-31T04:09:34.296Z,6.82
2022-12-31T04:14:34.010Z,8.40
2022-12-31T04:17:09.415Z,6.80
2022-12-31T04:19:41.763Z,7.20
2022-12-31T04:22:08.796Z,6.72
2022-12-31T04:24:41.342Z,6.53
2022-12-31T04:27:08.770Z,6.78
2022-12-31T04:29:39.912Z,7.47
2022-12-31T04:32:08.717Z,6.65
2022-12-31T04:34:36.125Z,8.68
2022-12-31T04:37:06.792Z,8.32
2022-12-31T04:39:36.427Z,6.45
2022-12-31T04:42:09.634Z,6.85
2022-12-31T04:44:37.757Z,6.40
2022-12-31T04:47:05.165Z,9.45
2022-12-31T04:49:37.993Z,6.85
2022-12-31T04:52:05.137Z,7.00
2022-12-31T04:54:34.859Z,6.87
2022-12-31T04:57:08.972Z,6.53
2022-12-31T04:59:36.436Z,7.28
2022-12-31T05:02:10.415Z,7.32
2022-12-31T05:04:40.695Z,7.35
2022-12-31T05:07:14.331Z,6.72
2022-12-31T05:09:44.710Z,6.12
2022-12-31T05:12:16.185Z,7.30
2022-12-31T05:14:45.738Z,7.05
2022-12-31T05:17:17.453Z,7.43
2022-12-31T05:19:45.202Z,7.05
2022-12-31T05:22:21.198Z,6.93
2022-12-31T05:24:50.579Z,6.28
2022-12-31T05:27:19.983Z,7.03
2022-12-31T05:29:49.577Z,9.05
2022-12-31T05:32:18.539Z,9.05
2022-12-31T05:34:51.583Z,8.77
2022-12-31T05:39:54.514Z,9.02
2022-12-31T05:42:24.370Z,8.20
2022-12-31T05:44:51.127Z,8.63
2022-12-31T05:47:21.410Z,7.45
2022-12-31T05:49:48.740Z,7.07
2022-12-31T05:52:25.213Z,7.80
2022-12-31T05:54:52.501Z,5.90
2022-12-31T05:57:30.916Z,6.68
2022-12-31T06:00:04.643Z,6.12
2022-12-31T06:02:37.408Z,6.22
2022-12-31T06:05:07.795Z,7.28
2022-12-31T06:07:37.926Z,7.18
2022-12-31T06:10:08.808Z,8.38
2022-12-31T06:12:39.165Z,7.32
2022-12-31T06:15:09.429Z,5.87
2022-12-31T06:17:39.336Z,5.70
2022-12-31T06:20:13.322Z,9.73
2022-12-31T06:22:46.998Z,7.50
2022-12-31T06:25:20.590Z,7.70
2022-12-31T06:27:53.058Z,7.50
2022-12-31T06:30:24.908Z,14.15
2022-12-31T06:32:56.425Z,32.03
2022-12-31T06:35:23.761Z,27.58
2022-12-31T06:37:54.725Z,20.00
2022-12-31T06:40:26.803Z,30.90
2022-12-31T06:42:59.927Z,18.43
2022-12-31T06:45:30.774Z,19.45
2022-12-31T06:48:03.725Z,23.85
2022-12-31T06:50:36.948Z,15.60
2022-12-31T06:53:06.992Z,29.45
2022-12-31T06:55:34.219Z,17.48
2022-12-31T06:58:02.180Z,17.48
2022-12-31T07:00:32.509Z,23.90
2022-12-31T07:03:33.466Z,28.80
2022-12-31T07:06:14.996Z,18.45
2022-12-31T07:09:14.742Z,14.20
2022-12-31T07:12:00.791Z,19.90
2022-12-31T07:14:33.825Z,16.05
2022-12-31T07:19:45.515Z,15.65
2022-12-31T07:22:17.523Z,11.25
2022-12-31T07:24:44.958Z,14.48
2022-12-31T07:27:30.271Z,17.73
2022-12-31T07:30:26.045Z,23.58
2022-12-31T07:33:07.609Z,22.98
2022-12-31T07:36:13.008Z,20.88
2022-12-31T07:39:41.161Z,20.20
2022-12-31T07:42:26.767Z,25.80
2022-12-31T07:45:08.826Z,27.87
2022-12-31T07:47:39.293Z,17.48
2022-12-31T07:50:17.704Z,20.95
2022-12-31T07:52:48.642Z,22.95
2022-12-31T07:55:18.979Z,21.08
2022-12-31T07:58:06.856Z,21.40
2022-12-31T08:00:34.447Z,23.50
2022-12-31T08:03:39.870Z,19.27
2022-12-31T08:06:27.561Z,18.62
2022-12-31T08:09:53.444Z,23.12
2022-12-31T08:12:27.915Z,22.42
2022-12-31T08:14:55.747Z,16.50
2022-12-31T08:17:29.031Z,17.77
2022-12-31T08:20:04.700Z,12.32
2022-12-31T08:23:06.384Z,21.58
2022-12-31T08:26:01.702Z,14.45
2022-12-31T08:28:46.495Z,14.32
2022-12-31T08:31:54.577Z,15.65
2022-12-31T08:34:51.222Z,16.42
2022-12-31T08:37:34.600Z,16.65
2022-12-31T08:40:16.497Z,22.80
2022-12-31T08:42:49.758Z,19.25
2022-12-31T08:45:38.578Z,13.27
2022-12-31T08:48:22.102Z,15.57
2022-12-31T08:50:52.714Z,16.98
2022-12-31T08:53:23.864Z,15.38
2022-12-31T08:56:02.167Z,19.92
2022-12-31T08:58:50.793Z,14.95
2022-12-31T09:01:23.512Z,8.60
2022-12-31T09:04:22.822Z,16.52
2022-12-31T09:06:59.460Z,12.80
2022-12-31T09:10:07.630Z,11.90
2022-12-31T09:13:03.545Z,17.50
2022-12-31T09:15:41.069Z,16.67
2022-12-31T09:18:12.659Z,19.35
2022-12-31T09:20:44.421Z,14.75
2022-12-31T09:23:18.046Z,10.77
2022-12-31T09:26:04.723Z,13.40
2022-12-31T09:28:44.782Z,10.93
2022-12-31T09:31:16.031Z,17.30
2022-12-31T09:33:59.277Z,15.98
2022-12-31T09:39:36.810Z,14.95
2022-12-31T09:42:03.753Z,12.02
2022-12-31T09:45:30.863Z,8.82
2022-12-31T09:48:19.477Z,8.77
2022-12-31T09:51:28.072Z,9.70
2022-12-31T09:54:33.858Z,7.35
2022-12-31T09:57:34.418Z,10.75
2022-12-31T10:00:47.193Z,6.97
2022-12-31T10:04:05.594Z,9.40
2022-12-31T10:07:01.538Z,8.88
2022-12-31T10:10:06.665Z,12.25
2022-12-31T10:12:55.066Z,11.45
2022-12-31T10:15:33.804Z,24.48
2022-12-31T10:18:31.113Z,11.88
2022-12-31T10:21:36.234Z,15.35
2022-12-31T10:24:22.009Z,10.35
2022-12-31T10:27:29.998Z,10.02
2022-12-31T10:30:21.477Z,10.35
2022-12-31T10:33:21.652Z,8.80
2022-12-31T10:36:02.845Z,13.50
2022-12-31T10:38:29.815Z,7.62
2022-12-31T10:41:36.870Z,9.98
2022-12-31T10:44:25.269Z,12.27
2022-12-31T10:47:04.349Z,15.82
2022-12-31T10:49:55.915Z,13.02
2022-12-31T10:52:46.919Z,14.40
2022-12-31T10:55:42.216Z,15.95
2022-12-31T10:58:27.110Z,12.90
2022-12-31T11:01:08.559Z,12.43
2022-12-31T11:03:57.642Z,11.18
2022-12-31T11:06:49.092Z,15.52
2022-12-31T11:09:40.890Z,16.75
2022-12-31T11:12:19.844Z,12.85
2022-12-31T11:14:55.501Z,13.07
2022-12-31T11:17:40.934Z,11.63
2022-12-31T11:20:34.828Z,13.68
2022-12-31T11:23:11.549Z,13.45
2022-12-31T11:25:53.021Z,15.50
2022-12-31T11:28:35.124Z,13.23
2022-12-31T11:31:31.323Z,10.93
2022-12-31T11:34:12.308Z,10.35
2022-12-31T11:36:52.593Z,17.90
2022-12-31T11:39:54.145Z,13.35
2022-12-31T11:42:33.806Z,9.40
2022-12-31T11:45:22.790Z,10.93
2022-12-31T11:48:29.137Z,9.65
2022-12-31T11:51:14.938Z,9.13
2022-12-31T11:54:14.547Z,11.32
2022-12-31T11:57:02.769Z,7.35
2022-12-31T11:59:30.935Z,7.00
2022-12-31T12:02:40.400Z,9.32
2022-12-31T12:05:15.086Z,8.75
2022-12-31T12:07:41.928Z,8.13
2022-12-31T12:10:37.170Z,8.27
2022-12-31T12:13:17.694Z,9.80
2022-12-31T12:15:58.135Z,7.18
2022-12-31T12:18:40.295Z,10.10
2022-12-31T12:21:14.563Z,9.60
2022-12-31T12:24:03.407Z,7.03
2022-12-31T12:26:38.208Z,8.45
2022-12-31T12:29:14.580Z,12.40
2022-12-31T12:31:42.174Z,6.78
2022-12-31T12:34:27.671Z,10.57
2022-12-31T12:37:01.508Z,8.40
2022-12-31T12:39:31.153Z,7.75
2022-12-31T12:42:14.618Z,7.00
2022-12-31T12:44:41.575Z,9.55
2022-12-31T12:47:19.543Z,8.55
2022-12-31T12:49:58.836Z,8.35
2022-12-31T12:52:48.324Z,11.75
2022-12-31T12:55:26.271Z,9.20
2022-12-31T12:58:19.282Z,9.07
2022-12-31T13:01:23.807Z,15.07
2022-12-31T13:04:33.061Z,9.50
2022-12-31T13:07:06.806Z,10.60
2022-12-31T13:10:13.956Z,8.02
2022-12-31T13:13:23.386Z,6.57
2022-12-31T13:16:04.081Z,8.63
2022-12-31T13:19:03.030Z,8.10
2022-12-31T13:21:53.529Z,8.77
2022-12-31T13:24:58.175Z,8.35
2022-12-31T13:27:38.824Z,9.25
2022-12-31T13:30:23.569Z,7.18
2022-12-31T13:32:58.427Z,7.95
2022-12-31T13:35:41.984Z,8.38
2022-12-31T13:38:31.879Z,11.93
2022-12-31T13:41:06.421Z,8.98
2022-12-31T13:43:39.790Z,11.18
2022-12-31T13:46:21.228Z,9.90
2022-12-31T13:48:56.600Z,14.75
2022-12-31T13:51:26.748Z,21.05
2022-12-31T13:54:26.121Z,11.25
2022-12-31T13:57:01.863Z,10.10
2022-12-31T13:59:34.571Z,10.52
2022-12-31T14:02:16.730Z,11.98
2022-12-31T14:04:50.787Z,17.87
2022-12-31T14:07:30.737Z,10.93
2022-12-31T14:10:12.070Z,13.70
2022-12-31T14:13:07.509Z,11.88
2022-12-31T14:16:04.034Z,18.17
2022-12-31T14:19:00.576Z,12.95
2022-12-31T14:21:44.199Z,14.32
2022-12-31T14:24:35.319Z,14.32
2022-12-31T14:27:08.593Z,11.43
2022-12-31T14:29:54.245Z,9.95
2022-12-31T14:33:14.814Z,13.27
2022-12-31T14:36:01.040Z,12.30
2022-12-31T14:38:58.760Z,11.05
2022-12-31T14:41:54.897Z,12.50
2022-12-31T14:44:58.019Z,10.18
2022-12-31T14:47:45.810Z,7.20
2022-12-31T14:50:17.525Z,12.02
2022-12-31T14:53:06.765Z,12.40
2022-12-31T14:55:39.046Z,11.05
2022-12-31T14:58:28.649Z,11.52
2022-12-31T15:01:22.746Z,7.68
2022-12-31T15:03:57.738Z,12.05
2022-12-31T15:06:37.569Z,12.20
2022-12-31T15:09:13.424Z,11.18
2022-12-31T15:12:04.218Z,11.07
2022-12-31T15:14:52.181Z,7.03
2022-12-31T15:17:33.495Z,7.95
2022-12-31T15:20:19.408Z,12.00
2022-12-31T15:22:51.292Z,11.55
2022-12-31T15:25:48.044Z,9.68
2022-12-31T15:28:38.525Z,11.10
2022-12-31T15:31:17.402Z,11.45
2022-12-31T15:33:59.699Z,9.05
2022-12-31T15:36:32.105Z,12.13
2022-12-31T15:39:34.054Z,9.88
2022-12-31T15:42:43.406Z,14.68
2022-12-31T15:45:27.201Z,11.85
2022-12-31T15:48:00.328Z,9.45
2022-12-31T15:50:31.776Z,13.10
2022-12-31T15:53:10.769Z,15.90
2022-12-31T15:55:49.256Z,14.50
2022-12-31T15:58:24.183Z,10.38
2022-12-31T16:01:02.808Z,13.50
2022-12-31T16:03:31.868Z,11.05
2022-12-31T16:06:11.329Z,12.95
2022-12-31T16:08:38.791Z,17.83
2022-12-31T16:11:07.608Z,15.90
2022-12-31T16:13:41.994Z,17.48
2022-12-31T16:16:23.697Z,13.68
2022-12-31T16:18:53.812Z,15.02
2022-12-31T16:21:39.774Z,20.62
2022-12-31T16:24:32.736Z,18.17
2022-12-31T16:27:06.527Z,26.20
2022-12-31T16:29:37.715Z,20.40
2022-12-31T16:32:18.855Z,27.65
2022-12-31T16:34:46.371Z,35.85
2022-12-31T16:37:19.912Z,32.80
2022-12-31T16:40:01.947Z,24.17
2022-12-31T16:42:29.280Z,21.37
2022-12-31T16:44:57.727Z,23.25
2022-12-31T16:47:28.618Z,25.27
2022-12-31T16:50:20.918Z,27.23
2022-12-31T16:53:03.273Z,25.58
2022-12-31T16:55:38.750Z,24.23
2022-12-31T16:58:28.315Z,43.65
2022-12-31T17:01:28.417Z,29.55
2022-12-31T17:04:06.514Z,28.65
2022-12-31T17:06:34.089Z,27.08
2022-12-31T17:09:12.161Z,28.05
2022-12-31T17:11:58.717Z,30.92
2022-12-31T17:14:29.329Z,35.22
2022-12-31T17:17:08.384Z,25.25
2022-12-31T17:19:42.793Z,28.10
2022-12-31T17:22:32.963Z,30.88
2022-12-31T17:25:21.569Z,32.53
2022-12-31T17:28:03.060Z,30.02
2022-12-31T17:30:30.432Z,25.50
2022-12-31T17:33:27.686Z,36.60
2022-12-31T17:36:18.074Z,32.50
2022-12-31T17:38:48.115Z,32.47
2022-12-31T17:41:22.548Z,36.17
2022-12-31T17:43:59.463Z,22.23
2022-12-31T17:46:33.262Z,28.33
2022-12-31T17:49:03.745Z,23.02
2022-12-31T17:51:40.078Z,34.88
2022-12-31T17:54:18.496Z,23.23
2022-12-31T17:56:46.405Z,34.90
2022-12-31T17:59:27.630Z,22.90
2022-12-31T18:02:03.604Z,30.27
2022-12-31T18:04:30.994Z,31.90
2022-12-31T18:07:01.421Z,27.67
2022-12-31T18:09:28.954Z,24.92
2022-12-31T18:12:01.671Z,29.15
2022-12-31T18:17:00.055Z,31.05
2022-12-31T18:20:02.913Z,30.48
2022-12-31T18:22:22.157Z,25.77
2022-12-31T18:24:55.365Z,17.53
2022-12-31T18:27:31.099Z,24.83
2022-12-31T18:30:04.952Z,26.77
2022-12-31T18:32:43.089Z,24.17
2022-12-31T18:38:16.604Z,17.37
2022-12-31T18:40:56.875Z,28.25
2022-12-31T18:43:24.665Z,19.42
2022-12-31T18:45:54.880Z,16.95
2022-12-31T18:48:25.366Z,24.08
2022-12-31T18:51:02.574Z,23.38
2022-12-31T18:53:29.627Z,28.17
2022-12-31T18:55:57.967Z,24.75
2022-12-31T18:58:25.351Z,27.45
2022-12-31T19:00:55.386Z,28.02
2022-12-31T19:03:27.311Z,18.85
2022-12-31T19:05:55.188Z,22.17
2022-12-31T19:08:23.786Z,22.00
2022-12-31T19:11:01.574Z,19.17
2022-12-31T19:13:28.511Z,19.60
2022-12-31T19:15:55.780Z,25.02
2022-12-31T19:18:22.805Z,19.50
2022-12-31T19:20:53.500Z,26.87
2022-12-31T19:23:21.364Z,19.40
2022-12-31T19:25:49.669Z,23.23
2022-12-31T19:28:19.473Z,23.15
2022-12-31T19:30:50.234Z,26.73
2022-12-31T19:33:18.270Z,21.95
2022-12-31T19:35:47.913Z,20.80
2022-12-31T19:38:22.623Z,21.55
2022-12-31T19:40:50.360Z,24.15
2022-12-31T19:43:19.836Z,18.27
2022-12-31T19:45:48.132Z,20.33
2022-12-31T19:48:21.135Z,17.83
2022-12-31T19:53:27.887Z,16.20
2022-12-31T19:55:54.821Z,15.60
2022-12-31T19:58:26.663Z,18.27
2022-12-31T20:01:01.968Z,10.63
2022-12-31T20:03:34.575Z,21.17
2022-12-31T20:06:10.633Z,14.67
2022-12-31T20:08:38.688Z,16.67
2022-12-31T20:11:13.149Z,14.43
2022-12-31T20:13:42.179Z,17.10
2022-12-31T20:16:12.129Z,18.83
2022-12-31T20:18:42.877Z,12.52
2022-12-31T20:21:16.876Z,13.20
2022-12-31T20:23:50.920Z,14.57
2022-12-31T20:26:23.005Z,24.58
2022-12-31T20:28:50.065Z,15.17
2022-12-31T20:31:20.129Z,16.70
2022-12-31T20:33:49.749Z,15.05
2022-12-31T20:36:17.888Z,17.27
2022-12-31T20:38:45.302Z,12.98
2022-12-31T20:41:17.559Z,13.65
2022-12-31T20:43:46.382Z,18.40
2022-12-31T20:46:20.838Z,11.80
2022-12-31T20:48:49.776Z,14.02
2022-12-31T20:51:17.657Z,15.13
2022-12-31T20:53:56.391Z,9.52
2022-12-31T20:56:29.396Z,13.32
2022-12-31T20:59:01.267Z,16.00
2022-12-31T21:01:41.831Z,19.83
2022-12-31T21:04:18.603Z,16.00
2022-12-31T21:06:45.937Z,15.95
2022-12-31T21:09:12.692Z,15.82
2022-12-31T21:11:42.903Z,15.23
2022-12-31T21:14:10.799Z,15.88
2022-12-31T21:16:37.663Z,10.45
2022-12-31T21:19:04.550Z,17.90
2022-12-31T21:21:31.554Z,14.48
2022-12-31T21:24:04.931Z,13.90
2022-12-31T21:26:33.462Z,14.60
2022-12-31T21:29:09.848Z,12.48
2022-12-31T21:31:40.015Z,15.70
2022-12-31T21:34:13.464Z,9.10
2022-12-31T21:36:43.608Z,20.42
2022-12-31T21:39:10.534Z,8.35
2022-12-31T21:41:43.723Z,16.30
2022-12-31T21:44:17.291Z,9.25
2022-12-31T21:47:15.706Z,14.00
2022-12-31T21:49:34.920Z,9.25
2022-12-31T21:52:08.889Z,12.93
2022-12-31T21:54:40.316Z,14.40
2022-12-31T21:57:13.535Z,11.38
2022-12-31T21:59:46.431Z,14.45
2022-12-31T22:02:21.818Z,12.65
2022-12-31T22:05:03.013Z,13.73
2022-12-31T22:07:40.931Z,9.37
2022-12-31T22:10:11.223Z,9.02
2022-12-31T22:12:38.060Z,12.88
2022-12-31T22:15:15.937Z,14.87
2022-12-31T22:17:46.433Z,12.45
2022-12-31T22:20:27.220Z,16.30
2022-12-31T22:22:57.644Z,16.67
2022-12-31T22:25:24.648Z,6.90
2022-12-31T22:28:27.569Z,8.82
2022-12-31T22:30:44.393Z,10.32
2022-12-31T22:33:19.162Z,8.98
2022-12-31T22:36:04.721Z,12.37
2022-12-31T22:38:33.104Z,10.23
2022-12-31T22:41:11.791Z,8.15
2022-12-31T22:43:48.187Z,8.82
2022-12-31T22:46:21.675Z,7.07
2022-12-31T22:48:57.405Z,7.15
2022-12-31T22:51:56.021Z,11.50
2022-12-31T22:54:17.575Z,9.30
2022-12-31T22:56:44.499Z,12.18
2022-12-31T22:59:11.765Z,8.88
2022-12-31T23:01:50.064Z,14.87
2022-12-31T23:04:17.103Z,12.07
2022-12-31T23:06:47.446Z,8.50
2022-12-31T23:09:16.623Z,9.07
2022-12-31T23:11:49.520Z,11.90
2022-12-31T23:16:46.855Z,8.43
2022-12-31T23:19:15.412Z,14.85
2022-12-31T23:21:45.408Z,9.05
2022-12-31T23:24:21.450Z,8.48
2022-12-31T23:26:51.588Z,12.85
2022-12-31T23:29:18.437Z,11.30
2022-12-31T23:31:45.328Z,11.07
2022-12-31T23:34:12.359Z,10.07
2022-12-31T23:36:39.157Z,9.68
2022-12-31T23:39:05.969Z,9.57
2022-12-31T23:41:32.895Z,11.65
2022-12-31T23:44:02.897Z,7.45
2022-12-31T23:46:34.094Z,10.57
2022-12-31T23:49:01.005Z,8.23
2022-12-31T23:51:34.254Z,10.88
2022-12-31T23:54:02.201Z,9.35
2022-12-31T23:56:31.611Z,7.40
2022-12-31T23:59:01.218Z,9.25
